Time;durP1;ratioP1;P1;durP2;ratioP2;P2;SDS_P1;SDS_P2;PMS_P1;PMS_P2;Temp;Humidity;BMP_temperature;BMP_pressure;BME280_temperature;BME280_humidity;BME280_pressure;Samples;Min_cycle;Max_cycle;Signal;HPM_P1;HPM_P2
2022/07/22 00:00:48;;;;;;;51.17;9.18;;;;;;;;;;4971943;28;20047;-66
2022/07/22 00:03:15;;;;;;;29.15;7.55;;;;;;;;;;4974516;28;20105;-67
2022/07/22 00:05:41;;;;;;;65.47;10.20;;;;;;;;;;4965099;28;20484;-65
2022/07/22 00:08:08;;;;;;;28.38;7.47;;;;;;;;;;4970503;28;20488;-66
2022/07/22 00:10:35;;;;;;;39.67;8.70;;;;;;;;;;4970913;28;20039;-66
2022/07/22 00:13:01;;;;;;;55.65;9.52;;;;;;;;;;4970887;28;20063;-65
2022/07/22 00:15:28;;;;;;;34.15;7.43;;;;;;;;;;4975367;28;20042;-69
2022/07/22 00:17:54;;;;;;;31.02;7.18;;;;;;;;;;4971840;28;20118;-69
2022/07/22 00:20:21;;;;;;;32.55;8.13;;;;;;;;;;4970920;28;20039;-69
2022/07/22 00:22:48;;;;;;;45.53;8.65;;;;;;;;;;4970630;28;20070;-69
2022/07/22 00:25:14;;;;;;;24.58;7.55;;;;;;;;;;4971660;28;20504;-69
2022/07/22 00:27:41;;;;;;;56.42;9.07;;;;;;;;;;4973051;28;20081;-69
2022/07/22 00:30:08;;;;;;;34.08;8.38;;;;;;;;;;4973504;28;20115;-70
2022/07/22 00:32:36;;;;;;;21.92;7.55;;;;;;;;;;4969694;28;20546;-70
2022/07/22 00:35:03;;;;;;;38.45;7.68;;;;;;;;;;4969811;28;20050;-70
2022/07/22 00:37:31;;;;;;;69.75;9.80;;;;;;;;;;4969484;28;20053;-65
2022/07/22 00:39:57;;;;;;;22.27;7.18;;;;;;;;;;4971035;28;20038;-65
2022/07/22 00:42:24;;;;;;;35.28;8.52;;;;;;;;;;4953852;28;20042;-65
2022/07/22 00:44:51;;;;;;;50.03;8.80;;;;;;;;;;4951655;28;20467;-68
2022/07/22 00:47:17;;;;;;;23.67;8.68;;;;;;;;;;4944157;28;20043;-68
2022/07/22 00:49:44;;;;;;;36.85;8.40;;;;;;;;;;4952531;28;20055;-71
2022/07/22 00:52:11;;;;;;;58.55;9.52;;;;;;;;;;4969946;28;20040;-71
2022/07/22 00:54:38;;;;;;;50.70;8.85;;;;;;;;;;4968410;28;20057;-73
2022/07/22 00:57:05;;;;;;;32.38;8.35;;;;;;;;;;4972517;28;20570;-69
2022/07/22 00:59:32;;;;;;;53.53;9.15;;;;;;;;;;4951250;28;20042;-69
2022/07/22 01:01:59;;;;;;;30.50;8.60;;;;;;;;;;4969145;28;20039;-69
2022/07/22 01:04:26;;;;;;;38.25;8.43;;;;;;;;;;4969363;28;20038;-69
2022/07/22 01:06:53;;;;;;;59.53;10.27;;;;;;;;;;4971154;28;20110;-69
2022/07/22 01:09:20;;;;;;;33.65;8.32;;;;;;;;;;4974081;28;20102;-68
2022/07/22 01:11:46;;;;;;;37.28;8.48;;;;;;;;;;4952154;28;20051;-69
2022/07/22 01:14:14;;;;;;;63.47;9.23;;;;;;;;;;4968971;28;20042;-69
2022/07/22 01:16:40;;;;;;;46.22;8.48;;;;;;;;;;4952212;28;20086;-67
2022/07/22 01:19:14;;;;;;;38.80;8.43;;;;;;;;;;4951784;28;20031;-67
2022/07/22 01:21:41;;;;;;;55.50;10.60;;;;;;;;;;4954501;28;20571;-67
2022/07/22 01:24:08;;;;;;;52.63;9.05;;;;;;;;;;4971847;28;20134;-67
2022/07/22 01:26:34;;;;;;;44.88;9.05;;;;;;;;;;4952611;28;20050;-68
2022/07/22 01:29:01;;;;;;;64.90;9.52;;;;;;;;;;4968734;28;20041;-67
2022/07/22 01:31:28;;;;;;;41.03;8.65;;;;;;;;;;4952137;28;20042;-67
2022/07/22 01:33:56;;;;;;;38.03;9.65;;;;;;;;;;4969001;28;20070;-65
2022/07/22 01:36:22;;;;;;;53.92;9.65;;;;;;;;;;4955909;28;20635;-65
2022/07/22 01:38:50;;;;;;;65.35;9.93;;;;;;;;;;4951645;28;20570;-65
2022/07/22 01:41:17;;;;;;;39.35;9.57;;;;;;;;;;4952485;28;20039;-66
2022/07/22 01:43:43;;;;;;;44.83;8.57;;;;;;;;;;4968768;28;20527;-66
2022/07/22 01:46:11;;;;;;;27.40;7.47;;;;;;;;;;4943280;28;20489;-66
2022/07/22 01:48:40;;;;;;;53.95;10.27;;;;;;;;;;4953811;28;20058;-65
2022/07/22 01:51:07;;;;;;;47.15;9.45;;;;;;;;;;4970673;28;20574;-69
2022/07/22 01:53:34;;;;;;;27.98;8.85;;;;;;;;;;4951164;28;20051;-67
2022/07/22 01:56:01;;;;;;;25.95;7.35;;;;;;;;;;4947695;28;20080;-67
2022/07/22 01:58:30;;;;;;;31.88;9.13;;;;;;;;;;4945125;28;20524;-66
2022/07/22 02:01:05;;;;;;;39.33;9.43;;;;;;;;;;4951297;28;20590;-67
2022/07/22 02:03:32;;;;;;;53.50;11.20;;;;;;;;;;4972001;28;20415;-65
2022/07/22 02:05:59;;;;;;;49.15;9.18;;;;;;;;;;4952027;28;20404;-67
2022/07/22 02:08:27;;;;;;;28.52;8.73;;;;;;;;;;4951038;28;20051;-68
2022/07/22 02:11:06;;;;;;;56.22;10.25;;;;;;;;;;4968503;28;20082;-68
2022/07/22 02:13:38;;;;;;;39.53;9.07;;;;;;;;;;4951255;28;20880;-69
2022/07/22 02:16:05;;;;;;;56.95;10.00;;;;;;;;;;4968053;28;20039;-69
2022/07/22 02:18:34;;;;;;;50.47;9.77;;;;;;;;;;4939012;29;20417;-68
2022/07/22 02:21:00;;;;;;;27.15;8.05;;;;;;;;;;4952093;28;20047;-67
2022/07/22 02:23:27;;;;;;;38.65;8.57;;;;;;;;;;4967696;28;20162;-67
2022/07/22 02:25:54;;;;;;;37.17;8.90;;;;;;;;;;4951384;28;20046;-68
2022/07/22 02:28:20;;;;;;;69.50;9.93;;;;;;;;;;4947305;28;20065;-71
2022/07/22 02:30:47;;;;;;;70.70;11.05;;;;;;;;;;4952312;28;20447;-70
2022/07/22 02:33:15;;;;;;;51.40;9.15;;;;;;;;;;4953669;28;20050;-69
2022/07/22 02:35:42;;;;;;;43.95;9.80;;;;;;;;;;4950537;28;20077;-69
2022/07/22 02:38:09;;;;;;;58.35;12.35;;;;;;;;;;4967553;28;20045;-69
2022/07/22 02:40:37;;;;;;;64.80;23.15;;;;;;;;;;4951320;28;20126;-65
2022/07/22 02:43:06;;;;;;;80.43;30.02;;;;;;;;;;4938624;28;20043;-64
2022/07/22 02:45:33;;;;;;;141.63;51.10;;;;;;;;;;4946579;29;20036;-69
2022/07/22 02:48:00;;;;;;;199.60;79.63;;;;;;;;;;4968697;28;20058;-68
2022/07/22 02:50:26;;;;;;;173.50;76.22;;;;;;;;;;4950607;28;20035;-68
2022/07/22 02:52:53;;;;;;;173.32;73.50;;;;;;;;;;4949654;28;20058;-67
2022/07/22 02:55:24;;;;;;;157.77;66.07;;;;;;;;;;4927220;28;20171;-69
2022/07/22 02:57:52;;;;;;;143.52;55.42;;;;;;;;;;4951491;28;20054;-69
2022/07/22 03:00:20;;;;;;;175.35;53.63;;;;;;;;;;4950168;28;20047;-68
2022/07/22 03:02:48;;;;;;;150.85;44.17;;;;;;;;;;4950391;28;20061;-68
2022/07/22 03:05:15;;;;;;;79.03;32.50;;;;;;;;;;4951151;28;20570;-68
2022/07/22 03:07:48;;;;;;;;;;;;;;;;;;4950666;28;20047;-68
2022/07/22 03:10:15;;;;;;;118.60;36.30;;;;;;;;;;4949184;28;19926;-69
2022/07/22 03:12:41;;;;;;;72.93;24.40;;;;;;;;;;4953215;28;20047;-68
2022/07/22 03:15:08;;;;;;;88.30;20.30;;;;;;;;;;4952319;28;20051;-68
2022/07/22 03:17:36;;;;;;;47.15;15.15;;;;;;;;;;4949828;28;20054;-69
2022/07/22 03:20:05;;;;;;;62.67;20.75;;;;;;;;;;4946008;28;20049;-70
2022/07/22 03:22:32;;;;;;;73.55;19.23;;;;;;;;;;4944767;28;20085;-68
2022/07/22 03:24:59;;;;;;;61.92;14.77;;;;;;;;;;4920601;28;20043;-70
2022/07/22 03:27:26;;;;;;;37.75;17.73;;;;;;;;;;4954918;28;20455;-69
2022/07/22 03:29:53;;;;;;;72.53;21.45;;;;;;;;;;4949748;28;20081;-71
2022/07/22 03:32:19;;;;;;;63.20;17.58;;;;;;;;;;4967064;28;20133;-70
2022/07/22 03:34:47;;;;;;;34.78;11.85;;;;;;;;;;4965901;28;20543;-71
2022/07/22 03:37:16;;;;;;;94.22;17.38;;;;;;;;;;4949039;28;20154;-71
2022/07/22 03:39:44;;;;;;;48.33;14.70;;;;;;;;;;4937235;28;20125;-69
2022/07/22 03:42:11;;;;;;;44.63;13.07;;;;;;;;;;4943061;29;20055;-69
2022/07/22 03:44:46;;;;;;;45.83;13.05;;;;;;;;;;4948515;28;20140;-71
2022/07/22 03:47:22;;;;;;;47.42;13.15;;;;;;;;;;4941402;28;20054;-65
2022/07/22 03:49:49;;;;;;;224.18;27.00;;;;;;;;;;4945468;28;20500;-67
2022/07/22 03:52:22;;;;;;;79.53;16.80;;;;;;;;;;4949326;28;20141;-70
2022/07/22 03:54:49;;;;;;;94.22;17.25;;;;;;;;;;4948380;29;20059;-69
2022/07/22 03:57:15;;;;;;;70.32;16.02;;;;;;;;;;4950025;29;20542;-70
2022/07/22 03:59:42;;;;;;;25.60;12.38;;;;;;;;;;4946947;29;20051;-69
2022/07/22 04:02:09;;;;;;;40.55;13.23;;;;;;;;;;4946720;29;20069;-66
2022/07/22 04:04:35;;;;;;;57.42;14.63;;;;;;;;;;4946699;29;20066;-70
2022/07/22 04:07:02;;;;;;;54.95;13.73;;;;;;;;;;4946608;29;20055;-70
2022/07/22 04:09:34;;;;;;;68.90;13.52;;;;;;;;;;4945833;29;20114;-70
2022/07/22 04:12:01;;;;;;;78.80;13.32;;;;;;;;;;4949790;29;20158;-68
2022/07/22 04:14:31;;;;;;;43.05;11.88;;;;;;;;;;4946538;29;20050;-66
2022/07/22 04:16:57;;;;;;;51.55;11.07;;;;;;;;;;4946210;29;20036;-67
2022/07/22 04:19:24;;;;;;;56.72;11.23;;;;;;;;;;4945957;29;20055;-67
2022/07/22 04:21:55;;;;;;;103.03;13.38;;;;;;;;;;4948290;29;20039;-68
2022/07/22 04:24:25;;;;;;;81.07;12.60;;;;;;;;;;4936333;29;20050;-66
2022/07/22 04:26:54;;;;;;;47.75;10.90;;;;;;;;;;4935471;29;20047;-67
2022/07/22 04:29:22;;;;;;;56.10;10.57;;;;;;;;;;4941861;29;20032;-69
2022/07/22 04:31:49;;;;;;;65.72;10.85;;;;;;;;;;4941624;29;20048;-68
2022/07/22 04:34:18;;;;;;;35.17;8.77;;;;;;;;;;4949487;28;20035;-67
2022/07/22 04:36:46;;;;;;;70.43;11.05;;;;;;;;;;4951648;29;20091;-67
2022/07/22 04:39:13;;;;;;;121.85;14.77;;;;;;;;;;4949218;29;20046;-68
2022/07/22 04:41:46;;;;;;;55.50;10.32;;;;;;;;;;4939383;29;20107;-65
2022/07/22 04:44:16;;;;;;;28.40;9.00;;;;;;;;;;4944523;29;20062;-64
2022/07/22 04:46:42;;;;;;;45.08;9.48;;;;;;;;;;4946235;28;20043;-74
2022/07/22 04:49:09;;;;;;;22.77;7.90;;;;;;;;;;4937814;29;20040;-65
2022/07/22 04:51:35;;;;;;;52.17;9.80;;;;;;;;;;4947270;29;20076;-65
2022/07/22 04:54:05;;;;;;;65.53;10.50;;;;;;;;;;4931026;29;20051;-65
2022/07/22 04:56:37;;;;;;;58.72;10.55;;;;;;;;;;4944401;29;20045;-69
2022/07/22 04:59:03;;;;;;;58.05;10.73;;;;;;;;;;4948947;29;20505;-66
2022/07/22 05:01:31;;;;;;;40.85;8.95;;;;;;;;;;4946246;29;20050;-66
2022/07/22 05:04:00;;;;;;;33.38;8.23;;;;;;;;;;4934553;29;20040;-69
2022/07/22 05:06:26;;;;;;;55.13;9.65;;;;;;;;;;4953946;29;20519;-70
2022/07/22 05:08:54;;;;;;;24.05;8.23;;;;;;;;;;4949543;29;20141;-69
2022/07/22 05:11:21;;;;;;;35.78;9.23;;;;;;;;;;4949927;29;20051;-69
2022/07/22 05:13:48;;;;;;;46.75;9.30;;;;;;;;;;4948790;29;20404;-68
2022/07/22 05:16:15;;;;;;;205.63;19.02;;;;;;;;;;4950658;28;20055;-69
2022/07/22 05:18:41;;;;;;;73.43;10.80;;;;;;;;;;4952338;29;20051;-67
2022/07/22 05:21:12;;;;;;;35.78;9.00;;;;;;;;;;4947705;29;20087;-68
2022/07/22 05:23:38;;;;;;;46.78;9.68;;;;;;;;;;4961194;28;20117;-67
2022/07/22 05:26:05;;;;;;;21.15;7.97;;;;;;;;;;4949387;29;20071;-67
2022/07/22 05:28:32;;;;;;;37.78;8.40;;;;;;;;;;4961560;28;20121;-67
2022/07/22 05:30:59;;;;;;;30.80;8.23;;;;;;;;;;4949179;29;20058;-68
2022/07/22 05:33:26;;;;;;;27.05;8.00;;;;;;;;;;4953664;29;20083;-68
2022/07/22 05:36:02;;;;;;;41.80;8.38;;;;;;;;;;4962620;28;20039;-66
2022/07/22 05:38:34;;;;;;;30.38;7.97;;;;;;;;;;4942363;28;20047;-67
2022/07/22 05:41:01;;;;;;;58.78;10.18;;;;;;;;;;4941494;29;20373;-66
2022/07/22 05:43:29;;;;;;;44.65;9.55;;;;;;;;;;4936384;29;20614;-68
2022/07/22 05:45:55;;;;;;;29.30;7.47;;;;;;;;;;4944485;28;20047;-68
2022/07/22 05:48:22;;;;;;;46.67;8.40;;;;;;;;;;4961447;28;20040;-70
2022/07/22 05:50:49;;;;;;;83.22;10.63;;;;;;;;;;4944991;29;20047;-70
2022/07/22 05:53:15;;;;;;;41.63;8.45;;;;;;;;;;4942299;29;20063;-69
2022/07/22 05:55:43;;;;;;;168.85;16.30;;;;;;;;;;4937344;28;20043;-74
2022/07/22 05:58:09;;;;;;;68.57;9.57;;;;;;;;;;4937500;28;20134;-69
2022/07/22 06:00:36;;;;;;;70.55;9.73;;;;;;;;;;4971880;28;20058;-71
2022/07/22 06:03:03;;;;;;;48.97;7.80;;;;;;;;;;4970280;28;20511;-69
2022/07/22 06:05:31;;;;;;;35.28;7.45;;;;;;;;;;4951757;28;20043;-67
2022/07/22 06:08:06;;;;;;;49.00;8.02;;;;;;;;;;4951649;28;20046;-68
2022/07/22 06:10:40;;;;;;;45.20;8.05;;;;;;;;;;4951453;28;20419;-68
2022/07/22 06:13:07;;;;;;;30.95;6.82;;;;;;;;;;4951613;28;20061;-67
2022/07/22 06:15:33;;;;;;;30.65;7.22;;;;;;;;;;4956167;28;20122;-67
2022/07/22 06:18:01;;;;;;;32.10;6.82;;;;;;;;;;4952320;28;20049;-67
2022/07/22 06:20:27;;;;;;;31.42;6.97;;;;;;;;;;4968867;28;20042;-67
2022/07/22 06:22:54;;;;;;;76.10;10.80;;;;;;;;;;4948336;28;20109;-67
2022/07/22 06:25:22;;;;;;;86.60;10.20;;;;;;;;;;4942672;28;20146;-67
2022/07/22 06:28:13;;;;;;;46.92;8.02;;;;;;;;;;4937596;28;20400;-68
2022/07/22 06:30:39;;;;;;;66.45;10.52;;;;;;;;;;4954445;28;20499;-68
2022/07/22 06:33:07;;;;;;;47.75;8.27;;;;;;;;;;4952926;28;20085;-68
2022/07/22 06:35:33;;;;;;;30.05;6.78;;;;;;;;;;4946553;29;20492;-68
2022/07/22 06:38:00;;;;;;;43.22;7.68;;;;;;;;;;4956835;28;20090;-68
2022/07/22 06:40:48;;;;;;;92.05;10.13;;;;;;;;;;4941697;28;20530;-70
2022/07/22 06:43:34;;;;;;;43.92;7.53;;;;;;;;;;4968686;28;20170;-68
2022/07/22 06:46:29;;;;;;;46.05;7.63;;;;;;;;;;4945743;28;20101;-74
2022/07/22 06:48:56;;;;;;;72.38;9.27;;;;;;;;;;4951913;28;20484;-66
2022/07/22 06:51:24;;;;;;;28.08;6.97;;;;;;;;;;4955359;28;20134;-67
2022/07/22 06:53:54;;;;;;;59.50;9.13;;;;;;;;;;4950066;28;20058;-67
2022/07/22 06:56:20;;;;;;;34.83;7.00;;;;;;;;;;4950726;28;20043;-66
2022/07/22 06:58:47;;;;;;;35.33;6.68;;;;;;;;;;4950419;28;20047;-67
2022/07/22 07:01:14;;;;;;;82.30;8.82;;;;;;;;;;4950745;28;20138;-63
2022/07/22 07:03:52;;;;;;;76.05;8.27;;;;;;;;;;4952615;28;20133;-65
2022/07/22 07:06:19;;;;;;;49.47;7.18;;;;;;;;;;4953372;28;20098;-66
2022/07/22 07:09:02;;;;;;;41.97;6.28;;;;;;;;;;4968042;28;20066;-67
2022/07/22 07:11:30;;;;;;;56.58;7.15;;;;;;;;;;4950689;28;20051;-64
2022/07/22 07:13:57;;;;;;;54.30;7.32;;;;;;;;;;4946532;28;20073;-65
2022/07/22 07:16:24;;;;;;;28.83;5.78;;;;;;;;;;4968019;28;20039;-66
2022/07/22 07:18:51;;;;;;;48.33;7.03;;;;;;;;;;4952049;28;20050;-66
2022/07/22 07:21:17;;;;;;;57.25;7.57;;;;;;;;;;4953336;28;20154;-66
2022/07/22 07:23:45;;;;;;;46.72;6.85;;;;;;;;;;4950015;28;20051;-66
2022/07/22 07:26:13;;;;;;;66.53;7.90;;;;;;;;;;4950226;28;20043;-66
2022/07/22 07:28:39;;;;;;;49.35;7.13;;;;;;;;;;4950541;28;20047;-66
2022/07/22 07:31:14;;;;;;;45.63;6.88;;;;;;;;;;4950441;28;20039;-67
2022/07/22 07:33:42;;;;;;;76.05;8.00;;;;;;;;;;4953388;28;20495;-67
2022/07/22 07:36:09;;;;;;;69.30;8.13;;;;;;;;;;4939160;29;20043;-68
2022/07/22 07:38:41;;;;;;;34.37;6.37;;;;;;;;;;4938797;29;20043;-67
2022/07/22 07:41:12;;;;;;;68.55;7.97;;;;;;;;;;4944055;28;20364;-67
2022/07/22 07:43:40;;;;;;;40.00;6.07;;;;;;;;;;4946300;28;20047;-68
2022/07/22 07:46:06;;;;;;;52.72;7.45;;;;;;;;;;4945005;28;20039;-68
2022/07/22 07:48:33;;;;;;;68.15;8.18;;;;;;;;;;4952553;28;20051;-68
2022/07/22 07:51:00;;;;;;;29.63;6.00;;;;;;;;;;4949904;28;20130;-67
2022/07/22 07:53:27;;;;;;;35.28;5.63;;;;;;;;;;4949744;28;20047;-67
2022/07/22 07:55:53;;;;;;;60.45;7.13;;;;;;;;;;4966936;28;20466;-69
2022/07/22 07:58:21;;;;;;;37.15;6.03;;;;;;;;;;4946245;28;20139;-68
2022/07/22 08:00:48;;;;;;;41.67;5.55;;;;;;;;;;4952516;28;20121;-68
2022/07/22 08:03:15;;;;;;;49.90;6.43;;;;;;;;;;4952671;28;20047;-68
2022/07/22 08:05:41;;;;;;;39.22;5.57;;;;;;;;;;4966862;28;20505;-68
2022/07/22 08:08:14;;;;;;;41.63;6.35;;;;;;;;;;4951272;28;20047;-69
2022/07/22 08:10:42;;;;;;;73.70;8.13;;;;;;;;;;4953757;28;20047;-68
2022/07/22 08:13:52;;;;;;;44.70;6.25;;;;;;;;;;4911350;29;20529;-68
2022/07/22 08:16:48;;;;;;;491.40;45.88;;;;;;;;;;4873143;29;20061;-68
2022/07/22 08:19:15;;;;;;;58.50;7.13;;;;;;;;;;4873420;29;20045;-68
2022/07/22 08:21:42;;;;;;;69.47;7.88;;;;;;;;;;4860908;29;20053;-68
2022/07/22 08:24:31;;;;;;;35.70;6.00;;;;;;;;;;4858717;29;20048;-68
2022/07/22 08:27:00;;;;;;;68.03;8.40;;;;;;;;;;4858517;29;20519;-68
2022/07/22 08:29:27;;;;;;;58.78;7.72;;;;;;;;;;4873218;29;20093;-68
2022/07/22 08:31:54;;;;;;;57.15;7.25;;;;;;;;;;4856463;29;20052;-68
2022/07/22 08:34:21;;;;;;;48.67;11.20;;;;;;;;;;4852137;29;20210;-68
2022/07/22 08:36:47;;;;;;;69.80;7.95;;;;;;;;;;4860419;29;20049;-68
2022/07/22 08:39:14;;;;;;;36.55;6.32;;;;;;;;;;4859962;29;20522;-68
2022/07/22 08:41:49;;;;;;;28.25;5.93;;;;;;;;;;4873125;29;20045;-68
2022/07/22 08:44:15;;;;;;;66.22;7.47;;;;;;;;;;4852212;29;20079;-68
2022/07/22 08:46:43;;;;;;;450.23;44.10;;;;;;;;;;4851814;29;20109;-68
2022/07/22 08:49:19;;;;;;;39.33;6.55;;;;;;;;;;4872475;29;20098;-67
2022/07/22 08:52:11;;;;;;;50.58;6.97;;;;;;;;;;4874955;29;20053;-68
2022/07/22 08:54:42;;;;;;;55.97;11.07;;;;;;;;;;4897302;29;20180;-68
2022/07/22 08:57:13;;;;;;;28.35;6.97;;;;;;;;;;4896207;29;20549;-68
2022/07/22 08:59:53;;;;;;;304.58;32.85;;;;;;;;;;4893690;29;20050;-68
2022/07/22 09:02:21;;;;;;;45.40;7.28;;;;;;;;;;4894333;29;20046;-69
2022/07/22 09:04:53;;;;;;;280.27;30.23;;;;;;;;;;4895008;29;20055;-68
2022/07/22 09:07:39;;;;;;;72.95;9.40;;;;;;;;;;4906451;29;20041;-68
2022/07/22 09:10:11;;;;;;;235.23;21.10;;;;;;;;;;4880618;29;20049;-67
2022/07/22 09:12:58;;;;;;;33.70;6.70;;;;;;;;;;4912061;29;20055;-68
2022/07/22 09:16:00;;;;;;;35.65;7.28;;;;;;;;;;4872770;29;20109;-67
2022/07/22 09:18:59;;;;;;;40.67;7.88;;;;;;;;;;4872885;29;20522;-68
2022/07/22 09:21:29;;;;;;;60.42;9.65;;;;;;;;;;4876883;29;20080;-68
2022/07/22 09:24:31;;;;;;;70.13;9.35;;;;;;;;;;4859050;29;20049;-68
2022/07/22 09:27:24;;;;;;;127.05;13.50;;;;;;;;;;4868519;29;20046;-68
2022/07/22 09:30:25;;;;;;;32.33;7.85;;;;;;;;;;4892287;29;20132;-68
2022/07/22 09:33:01;;;;;;;37.65;8.40;;;;;;;;;;4865225;29;20135;-69
2022/07/22 09:35:51;;;;;;;52.78;9.15;;;;;;;;;;4889396;29;20405;-68
2022/07/22 09:38:27;;;;;;;21.90;7.63;;;;;;;;;;4875424;29;20514;-67
2022/07/22 09:40:55;;;;;;;35.45;7.75;;;;;;;;;;4875540;29;20049;-68
2022/07/22 09:43:22;;;;;;;74.88;9.85;;;;;;;;;;4875496;29;20049;-68
2022/07/22 09:45:49;;;;;;;54.00;9.23;;;;;;;;;;4862623;29;20454;-68
2022/07/22 09:48:18;;;;;;;46.83;9.50;;;;;;;;;;4893392;29;20052;-68
2022/07/22 09:50:56;;;;;;;34.67;8.73;;;;;;;;;;4956250;28;20137;-68
2022/07/22 09:53:41;;;;;;;39.00;8.80;;;;;;;;;;4951393;28;20511;-68
2022/07/22 09:56:10;;;;;;;75.22;10.95;;;;;;;;;;4951848;28;20510;-68
2022/07/22 09:58:37;;;;;;;37.33;8.27;;;;;;;;;;4952264;28;20102;-68
2022/07/22 10:01:17;;;;;;;38.75;9.80;;;;;;;;;;4947576;28;20047;-68
2022/07/22 10:03:48;;;;;;;53.22;9.60;;;;;;;;;;4955434;28;20503;-68
2022/07/22 10:06:15;;;;;;;57.15;10.77;;;;;;;;;;4954430;28;20039;-68
2022/07/22 10:08:42;;;;;;;38.22;9.05;;;;;;;;;;4951442;28;20074;-68
2022/07/22 10:11:09;;;;;;;45.67;10.15;;;;;;;;;;4968971;28;20038;-67
2022/07/22 10:13:38;;;;;;;52.10;10.98;;;;;;;;;;4951713;28;20129;-67
2022/07/22 10:16:06;;;;;;;139.20;16.23;;;;;;;;;;4952390;29;20134;-68
2022/07/22 10:18:34;;;;;;;370.90;36.60;;;;;;;;;;4952184;28;20046;-68
2022/07/22 10:21:05;;;;;;;56.40;11.63;;;;;;;;;;4951474;28;20070;-68
2022/07/22 10:23:32;;;;;;;68.85;14.30;;;;;;;;;;4935319;29;20051;-68
2022/07/22 10:26:00;;;;;;;36.97;9.27;;;;;;;;;;4948193;28;20078;-68
2022/07/22 10:28:30;;;;;;;60.60;10.75;;;;;;;;;;4947651;28;20050;-68
2022/07/22 10:31:15;;;;;;;130.30;15.27;;;;;;;;;;4957049;28;20556;-68
2022/07/22 10:33:43;;;;;;;131.68;14.77;;;;;;;;;;4968861;28;20074;-70
2022/07/22 10:36:10;;;;;;;38.17;8.85;;;;;;;;;;4965918;28;20047;-69
2022/07/22 10:38:37;;;;;;;38.20;8.63;;;;;;;;;;4947004;28;20527;-69
2022/07/22 10:41:06;;;;;;;61.15;10.13;;;;;;;;;;4950822;28;20039;-69
2022/07/22 10:43:43;;;;;;;104.57;13.20;;;;;;;;;;4968192;28;20062;-68
2022/07/22 10:46:09;;;;;;;56.72;9.88;;;;;;;;;;4962582;28;20058;-68
2022/07/22 10:48:36;;;;;;;74.07;10.80;;;;;;;;;;4973035;28;20076;-69
2022/07/22 10:51:05;;;;;;;52.97;9.18;;;;;;;;;;4968741;28;20130;-68
2022/07/22 10:53:55;;;;;;;90.07;11.75;;;;;;;;;;4967951;28;20098;-69
2022/07/22 10:56:23;;;;;;;33.83;8.45;;;;;;;;;;4958970;28;20055;-69
2022/07/22 10:58:54;;;;;;;50.50;8.68;;;;;;;;;;4967787;28;20105;-68
2022/07/22 11:01:22;;;;;;;47.67;11.02;;;;;;;;;;4968552;28;20050;-68
2022/07/22 11:03:50;;;;;;;118.20;13.98;;;;;;;;;;4970979;28;20125;-68
2022/07/22 11:06:16;;;;;;;55.85;10.05;;;;;;;;;;4970624;28;20046;-68
2022/07/22 11:08:43;;;;;;;39.53;8.77;;;;;;;;;;4967587;28;20073;-68
2022/07/22 11:11:10;;;;;;;26.58;8.75;;;;;;;;;;4968045;28;20467;-68
2022/07/22 11:13:38;;;;;;;73.40;10.70;;;;;;;;;;4967508;28;20050;-69
2022/07/22 11:16:18;;;;;;;32.25;8.38;;;;;;;;;;4968423;28;20057;-68
2022/07/22 11:18:52;;;;;;;99.30;12.77;;;;;;;;;;4968562;28;20451;-69
2022/07/22 11:21:20;;;;;;;57.10;9.82;;;;;;;;;;4963037;28;20510;-68
2022/07/22 11:23:49;;;;;;;58.20;9.50;;;;;;;;;;4967656;28;20042;-69
2022/07/22 11:26:16;;;;;;;94.90;11.55;;;;;;;;;;4967349;28;20476;-69
2022/07/22 11:28:44;;;;;;;49.97;9.77;;;;;;;;;;4968064;28;20094;-68
2022/07/22 11:31:14;;;;;;;38.90;8.57;;;;;;;;;;4955159;28;20050;-68
2022/07/22 11:33:41;;;;;;;74.72;10.65;;;;;;;;;;4968160;28;20047;-69
2022/07/22 11:36:09;;;;;;;46.22;9.52;;;;;;;;;;4968924;28;20074;-69
2022/07/22 11:38:54;;;;;;;187.30;20.95;;;;;;;;;;4967469;28;20547;-69
2022/07/22 11:41:20;;;;;;;54.25;9.60;;;;;;;;;;4967815;28;20043;-69
2022/07/22 11:43:48;;;;;;;48.88;9.77;;;;;;;;;;4970002;28;20049;-69
2022/07/22 11:46:16;;;;;;;60.13;10.50;;;;;;;;;;4966157;28;20106;-69
2022/07/22 11:48:43;;;;;;;43.58;9.35;;;;;;;;;;4975249;28;20043;-68
2022/07/22 11:51:11;;;;;;;64.00;11.63;;;;;;;;;;4972824;28;20133;-68
2022/07/22 11:53:46;;;;;;;67.15;11.27;;;;;;;;;;4971185;28;20105;-68
2022/07/22 11:56:13;;;;;;;36.70;9.32;;;;;;;;;;4971442;28;20046;-68
2022/07/22 11:58:40;;;;;;;40.53;8.60;;;;;;;;;;4971554;28;20042;-68
2022/07/22 12:01:08;;;;;;;56.60;9.63;;;;;;;;;;4971749;28;20621;-69
2022/07/22 12:03:36;;;;;;;41.92;9.13;;;;;;;;;;4972171;28;20567;-68
2022/07/22 12:06:04;;;;;;;82.00;11.40;;;;;;;;;;4971073;28;20414;-68
2022/07/22 12:08:31;;;;;;;57.25;9.88;;;;;;;;;;4971064;28;20546;-68
2022/07/22 12:10:58;;;;;;;45.40;9.52;;;;;;;;;;4971010;28;20050;-68
2022/07/22 12:13:31;;;;;;;57.15;11.63;;;;;;;;;;4970729;28;20063;-68
2022/07/22 12:16:17;;;;;;;26.80;7.93;;;;;;;;;;4968519;28;20544;-68
2022/07/22 12:18:43;;;;;;;63.13;12.52;;;;;;;;;;4974435;28;20499;-68
2022/07/22 12:21:10;;;;;;;47.83;10.15;;;;;;;;;;4972106;28;20039;-68
2022/07/22 12:23:36;;;;;;;30.45;8.27;;;;;;;;;;4970877;28;20042;-69
2022/07/22 12:26:03;;;;;;;40.83;9.38;;;;;;;;;;4970698;28;20046;-69
2022/07/22 12:28:29;;;;;;;22.20;8.18;;;;;;;;;;4964891;28;20114;-69
2022/07/22 12:30:56;;;;;;;53.58;10.20;;;;;;;;;;4972789;28;20129;-69
2022/07/22 12:33:23;;;;;;;102.32;14.65;;;;;;;;;;4975434;28;20050;-69
2022/07/22 12:36:00;;;;;;;42.50;10.23;;;;;;;;;;4971500;28;20130;-69
2022/07/22 12:38:27;;;;;;;50.05;10.52;;;;;;;;;;4970488;28;20034;-69
2022/07/22 12:41:19;;;;;;;83.57;11.98;;;;;;;;;;4967912;28;20129;-68
2022/07/22 12:43:45;;;;;;;43.05;9.57;;;;;;;;;;4962603;28;20042;-68
2022/07/22 12:46:12;;;;;;;66.68;10.73;;;;;;;;;;4964706;28;20114;-69
2022/07/22 12:48:48;;;;;;;31.27;8.95;;;;;;;;;;4975413;28;20057;-69
2022/07/22 12:51:14;;;;;;;90.50;13.75;;;;;;;;;;4974075;28;20043;-69
2022/07/22 12:53:41;;;;;;;36.70;11.82;;;;;;;;;;4967010;28;20074;-69
2022/07/22 12:56:10;;;;;;;48.92;11.15;;;;;;;;;;4970331;28;20125;-69
2022/07/22 12:58:39;;;;;;;64.60;11.52;;;;;;;;;;4970291;28;20086;-69
2022/07/22 13:01:06;;;;;;;329.77;31.35;;;;;;;;;;4970753;28;20067;-70
2022/07/22 13:03:33;;;;;;;41.60;10.57;;;;;;;;;;4974742;28;20121;-70
2022/07/22 13:06:02;;;;;;;43.72;9.73;;;;;;;;;;4970003;28;20055;-69
2022/07/22 13:08:33;;;;;;;120.45;16.40;;;;;;;;;;4969409;28;20035;-69
2022/07/22 13:11:11;;;;;;;63.25;11.07;;;;;;;;;;4970229;28;20047;-68
2022/07/22 13:13:38;;;;;;;42.92;9.25;;;;;;;;;;4955112;28;20564;-69
2022/07/22 13:16:05;;;;;;;40.97;9.35;;;;;;;;;;4971051;28;20130;-68
2022/07/22 13:18:31;;;;;;;29.73;8.98;;;;;;;;;;4974395;28;20411;-69
2022/07/22 13:20:58;;;;;;;56.15;9.98;;;;;;;;;;4969514;28;20407;-69
2022/07/22 13:23:25;;;;;;;99.32;14.10;;;;;;;;;;4969667;28;20151;-69
2022/07/22 13:25:51;;;;;;;40.72;8.50;;;;;;;;;;4969959;28;20050;-68
2022/07/22 13:28:21;;;;;;;76.47;10.68;;;;;;;;;;4963289;28;20050;-68
2022/07/22 13:30:47;;;;;;;67.90;10.35;;;;;;;;;;4972944;28;20075;-69
2022/07/22 13:33:16;;;;;;;40.70;8.52;;;;;;;;;;4967276;28;20039;-69
2022/07/22 13:35:43;;;;;;;86.88;11.13;;;;;;;;;;4969631;28;20039;-69
2022/07/22 13:38:09;;;;;;;32.28;8.77;;;;;;;;;;4968848;28;20546;-68
2022/07/22 13:40:42;;;;;;;60.97;9.27;;;;;;;;;;4969705;28;20049;-69
2022/07/22 13:43:09;;;;;;;79.97;10.63;;;;;;;;;;4969859;28;20070;-69
2022/07/22 13:45:40;;;;;;;76.77;16.00;;;;;;;;;;4960955;28;20448;-69
2022/07/22 13:48:07;;;;;;;50.60;8.82;;;;;;;;;;4969388;28;20496;-70
2022/07/22 13:50:33;;;;;;;44.78;8.57;;;;;;;;;;4969622;28;20069;-69
2022/07/22 13:53:00;;;;;;;42.88;8.15;;;;;;;;;;4968622;28;20042;-69
2022/07/22 13:55:27;;;;;;;69.35;10.40;;;;;;;;;;4969113;28;20134;-69
2022/07/22 13:57:53;;;;;;;76.95;10.80;;;;;;;;;;4971862;28;20043;-69
2022/07/22 14:00:20;;;;;;;31.67;7.90;;;;;;;;;;4971914;28;20084;-69
2022/07/22 14:02:46;;;;;;;54.85;9.05;;;;;;;;;;4969126;28;20479;-69
2022/07/22 14:05:14;;;;;;;45.25;8.43;;;;;;;;;;4968441;28;20544;-69
2022/07/22 14:07:41;;;;;;;38.03;7.97;;;;;;;;;;4968657;28;20496;-69
2022/07/22 14:10:08;;;;;;;39.45;8.43;;;;;;;;;;4943078;28;20050;-69
2022/07/22 14:12:35;;;;;;;49.05;8.93;;;;;;;;;;4973646;28;20041;-69
2022/07/22 14:15:01;;;;;;;41.75;8.63;;;;;;;;;;4969059;28;20082;-70
2022/07/22 14:17:29;;;;;;;60.47;9.40;;;;;;;;;;4968590;28;20078;-69
2022/07/22 14:19:56;;;;;;;84.13;10.55;;;;;;;;;;4968626;28;20130;-69
2022/07/22 14:22:27;;;;;;;50.45;8.75;;;;;;;;;;4968371;28;20488;-69
2022/07/22 14:24:53;;;;;;;74.35;10.52;;;;;;;;;;4955523;28;20122;-70
2022/07/22 14:27:20;;;;;;;76.68;15.07;;;;;;;;;;4971371;28;20039;-69
2022/07/22 14:29:46;;;;;;;54.22;8.45;;;;;;;;;;4968873;28;20438;-68
2022/07/22 14:32:13;;;;;;;48.50;8.70;;;;;;;;;;4968670;28;20571;-69
2022/07/22 14:34:39;;;;;;;45.63;8.15;;;;;;;;;;4968351;28;20073;-69
2022/07/22 14:37:07;;;;;;;76.18;10.55;;;;;;;;;;4968986;28;20508;-69